sensor_id;sensor_type;location;lat;lon;timestamp;P1;durP1;ratioP1;P2;durP2;ratioP2
21114;SDS011;10715;48.546;9.896;2023-07-31T00:00:49;1.20;;;0.60;;
21114;SDS011;10715;48.546;9.896;2023-07-31T00:03:15;1.23;;;0.70;;
21114;SDS011;10715;48.546;9.896;2023-07-31T00:05:40;1.07;;;0.93;;
21114;SDS011;10715;48.546;9.896;2023-07-31T00:08:06;0.70;;;0.50;;
21114;SDS011;10715;48.546;9.896;2023-07-31T00:10:32;1.40;;;1.00;;
21114;SDS011;10715;48.546;9.896;2023-07-31T00:12:58;0.90;;;0.50;;
21114;SDS011;10715;48.546;9.896;2023-07-31T00:15:24;1.27;;;0.60;;
21114;SDS011;10715;48.546;9.896;2023-07-31T00:17:50;1.00;;;0.50;;
21114;SDS011;10715;48.546;9.896;2023-07-31T00:20:15;4.27;;;0.80;;
21114;SDS011;10715;48.546;9.896;2023-07-31T00:22:41;1.00;;;0.60;;
21114;SDS011;10715;48.546;9.896;2023-07-31T00:25:07;1.03;;;0.63;;
21114;SDS011;10715;48.546;9.896;2023-07-31T00:27:33;1.53;;;0.50;;
21114;SDS011;10715;48.546;9.896;2023-07-31T00:29:59;1.27;;;0.67;;
21114;SDS011;10715;48.546;9.896;2023-07-31T00:32:24;0.93;;;0.60;;
21114;SDS011;10715;48.546;9.896;2023-07-31T00:34:50;2.03;;;0.80;;
21114;SDS011;10715;48.546;9.896;2023-07-31T00:37:16;3.10;;;0.60;;
21114;SDS011;10715;48.546;9.896;2023-07-31T00:39:41;2.80;;;0.80;;
21114;SDS011;10715;48.546;9.896;2023-07-31T00:42:07;2.70;;;0.50;;
21114;SDS011;10715;48.546;9.896;2023-07-31T00:44:33;2.10;;;0.50;;
21114;SDS011;10715;48.546;9.896;2023-07-31T00:46:59;1.00;;;0.60;;
21114;SDS011;10715;48.546;9.896;2023-07-31T00:49:25;1.53;;;0.53;;
21114;SDS011;10715;48.546;9.896;2023-07-31T00:51:52;1.20;;;0.60;;
21114;SDS011;10715;48.546;9.896;2023-07-31T00:54:18;5.10;;;0.70;;
21114;SDS011;10715;48.546;9.896;2023-07-31T00:56:44;0.90;;;0.50;;
21114;SDS011;10715;48.546;9.896;2023-07-31T00:59:13;2.33;;;0.53;;
21114;SDS011;10715;48.546;9.896;2023-07-31T01:01:39;1.10;;;0.60;;
21114;SDS011;10715;48.546;9.896;2023-07-31T01:04:05;2.33;;;0.70;;
21114;SDS011;10715;48.546;9.896;2023-07-31T01:12:16;3.27;;;0.67;;
21114;SDS011;10715;48.546;9.896;2023-07-31T01:15:01;1.57;;;0.50;;
21114;SDS011;10715;48.546;9.896;2023-07-31T01:17:31;1.20;;;0.57;;
21114;SDS011;10715;48.546;9.896;2023-07-31T01:19:58;3.53;;;0.80;;
21114;SDS011;10715;48.546;9.896;2023-07-31T01:22:38;1.50;;;0.50;;
21114;SDS011;10715;48.546;9.896;2023-07-31T01:28:02;3.43;;;0.70;;
21114;SDS011;10715;48.546;9.896;2023-07-31T01:30:45;1.20;;;0.70;;
21114;SDS011;10715;48.546;9.896;2023-07-31T01:33:14;2.50;;;0.57;;
21114;SDS011;10715;48.546;9.896;2023-07-31T01:35:42;1.23;;;0.60;;
21114;SDS011;10715;48.546;9.896;2023-07-31T01:38:10;9.73;;;1.60;;
21114;SDS011;10715;48.546;9.896;2023-07-31T01:40:35;1.07;;;0.50;;
21114;SDS011;10715;48.546;9.896;2023-07-31T01:43:01;0.80;;;0.50;;
21114;SDS011;10715;48.546;9.896;2023-07-31T01:45:27;2.13;;;0.53;;
21114;SDS011;10715;48.546;9.896;2023-07-31T01:47:53;3.53;;;0.70;;
21114;SDS011;10715;48.546;9.896;2023-07-31T01:50:18;1.00;;;0.50;;
21114;SDS011;10715;48.546;9.896;2023-07-31T01:52:44;2.17;;;0.90;;
21114;SDS011;10715;48.546;9.896;2023-07-31T01:55:10;5.10;;;0.97;;
21114;SDS011;10715;48.546;9.896;2023-07-31T01:57:36;9.40;;;0.83;;
21114;SDS011;10715;48.546;9.896;2023-07-31T02:00:02;1.37;;;0.77;;
21114;SDS011;10715;48.546;9.896;2023-07-31T02:02:29;2.10;;;0.90;;
21114;SDS011;10715;48.546;9.896;2023-07-31T02:04:54;1.27;;;0.80;;
21114;SDS011;10715;48.546;9.896;2023-07-31T02:07:20;3.00;;;0.87;;
21114;SDS011;10715;48.546;9.896;2023-07-31T02:09:46;1.80;;;0.90;;
21114;SDS011;10715;48.546;9.896;2023-07-31T02:12:13;4.53;;;0.70;;
21114;SDS011;10715;48.546;9.896;2023-07-31T02:14:39;1.97;;;0.63;;
21114;SDS011;10715;48.546;9.896;2023-07-31T02:17:05;3.37;;;0.70;;
21114;SDS011;10715;48.546;9.896;2023-07-31T02:19:31;1.03;;;0.60;;
21114;SDS011;10715;48.546;9.896;2023-07-31T02:21:57;1.07;;;0.57;;
21114;SDS011;10715;48.546;9.896;2023-07-31T02:24:23;0.90;;;0.50;;
21114;SDS011;10715;48.546;9.896;2023-07-31T02:26:49;1.27;;;0.90;;
21114;SDS011;10715;48.546;9.896;2023-07-31T02:29:15;1.00;;;0.60;;
21114;SDS011;10715;48.546;9.896;2023-07-31T02:31:40;1.20;;;0.90;;
21114;SDS011;10715;48.546;9.896;2023-07-31T02:34:06;2.23;;;0.80;;
21114;SDS011;10715;48.546;9.896;2023-07-31T02:36:32;3.23;;;0.80;;
21114;SDS011;10715;48.546;9.896;2023-07-31T02:38:57;0.90;;;0.50;;
21114;SDS011;10715;48.546;9.896;2023-07-31T02:41:23;2.30;;;0.50;;
21114;SDS011;10715;48.546;9.896;2023-07-31T02:43:49;1.23;;;0.50;;
21114;SDS011;10715;48.546;9.896;2023-07-31T02:46:14;2.30;;;0.53;;
21114;SDS011;10715;48.546;9.896;2023-07-31T02:48:40;3.23;;;0.87;;
21114;SDS011;10715;48.546;9.896;2023-07-31T02:51:06;1.30;;;0.80;;
21114;SDS011;10715;48.546;9.896;2023-07-31T02:53:31;2.70;;;0.73;;
21114;SDS011;10715;48.546;9.896;2023-07-31T02:55:57;4.80;;;0.77;;
21114;SDS011;10715;48.546;9.896;2023-07-31T02:58:23;1.70;;;0.57;;
21114;SDS011;10715;48.546;9.896;2023-07-31T03:00:48;3.00;;;0.90;;
21114;SDS011;10715;48.546;9.896;2023-07-31T03:03:14;0.90;;;0.50;;
21114;SDS011;10715;48.546;9.896;2023-07-31T03:05:40;1.20;;;0.60;;
21114;SDS011;10715;48.546;9.896;2023-07-31T03:08:05;1.77;;;0.73;;
21114;SDS011;10715;48.546;9.896;2023-07-31T03:10:31;1.43;;;1.03;;
21114;SDS011;10715;48.546;9.896;2023-07-31T03:12:57;1.13;;;0.67;;
21114;SDS011;10715;48.546;9.896;2023-07-31T03:15:22;1.03;;;0.70;;
21114;SDS011;10715;48.546;9.896;2023-07-31T03:17:48;2.13;;;0.60;;
21114;SDS011;10715;48.546;9.896;2023-07-31T03:20:14;4.70;;;0.60;;
21114;SDS011;10715;48.546;9.896;2023-07-31T03:22:40;2.27;;;0.70;;
21114;SDS011;10715;48.546;9.896;2023-07-31T03:25:05;3.83;;;0.70;;
21114;SDS011;10715;48.546;9.896;2023-07-31T03:27:31;1.00;;;0.77;;
21114;SDS011;10715;48.546;9.896;2023-07-31T03:29:57;1.40;;;1.00;;
21114;SDS011;10715;48.546;9.896;2023-07-31T03:32:24;3.23;;;1.10;;
21114;SDS011;10715;48.546;9.896;2023-07-31T03:34:50;3.40;;;1.40;;
21114;SDS011;10715;48.546;9.896;2023-07-31T03:37:15;1.73;;;1.20;;
21114;SDS011;10715;48.546;9.896;2023-07-31T03:39:41;3.90;;;1.70;;
21114;SDS011;10715;48.546;9.896;2023-07-31T03:42:07;1.67;;;1.43;;
21114;SDS011;10715;48.546;9.896;2023-07-31T03:44:33;3.90;;;1.13;;
21114;SDS011;10715;48.546;9.896;2023-07-31T03:46:58;1.60;;;1.50;;
21114;SDS011;10715;48.546;9.896;2023-07-31T03:49:24;1.13;;;0.97;;
21114;SDS011;10715;48.546;9.896;2023-07-31T03:51:50;4.93;;;2.77;;
21114;SDS011;10715;48.546;9.896;2023-07-31T03:54:15;1.87;;;1.10;;
21114;SDS011;10715;48.546;9.896;2023-07-31T03:56:41;2.90;;;0.90;;
21114;SDS011;10715;48.546;9.896;2023-07-31T03:59:07;1.50;;;0.87;;
21114;SDS011;10715;48.546;9.896;2023-07-31T04:01:32;3.00;;;1.10;;
21114;SDS011;10715;48.546;9.896;2023-07-31T04:03:58;1.90;;;1.53;;
21114;SDS011;10715;48.546;9.896;2023-07-31T04:06:24;2.67;;;1.20;;
21114;SDS011;10715;48.546;9.896;2023-07-31T04:08:49;1.57;;;1.00;;
21114;SDS011;10715;48.546;9.896;2023-07-31T04:11:15;3.40;;;1.80;;
21114;SDS011;10715;48.546;9.896;2023-07-31T04:13:41;2.47;;;1.03;;
21114;SDS011;10715;48.546;9.896;2023-07-31T04:16:06;1.53;;;1.20;;
21114;SDS011;10715;48.546;9.896;2023-07-31T04:18:32;1.80;;;1.30;;
21114;SDS011;10715;48.546;9.896;2023-07-31T04:20:58;1.13;;;0.90;;
21114;SDS011;10715;48.546;9.896;2023-07-31T04:23:24;1.70;;;1.30;;
21114;SDS011;10715;48.546;9.896;2023-07-31T04:25:50;2.17;;;1.10;;
21114;SDS011;10715;48.546;9.896;2023-07-31T04:28:16;1.53;;;1.10;;
21114;SDS011;10715;48.546;9.896;2023-07-31T04:30:42;1.60;;;1.00;;
21114;SDS011;10715;48.546;9.896;2023-07-31T04:33:07;1.23;;;1.00;;
21114;SDS011;10715;48.546;9.896;2023-07-31T04:35:33;1.90;;;1.13;;
21114;SDS011;10715;48.546;9.896;2023-07-31T04:37:59;2.47;;;1.03;;
21114;SDS011;10715;48.546;9.896;2023-07-31T04:40:25;2.77;;;1.00;;
21114;SDS011;10715;48.546;9.896;2023-07-31T04:42:50;2.03;;;1.30;;
21114;SDS011;10715;48.546;9.896;2023-07-31T04:45:16;2.60;;;1.10;;
21114;SDS011;10715;48.546;9.896;2023-07-31T04:47:42;1.83;;;1.47;;
21114;SDS011;10715;48.546;9.896;2023-07-31T04:50:08;1.37;;;1.07;;
21114;SDS011;10715;48.546;9.896;2023-07-31T04:52:34;9.30;;;1.83;;
21114;SDS011;10715;48.546;9.896;2023-07-31T04:54:59;3.47;;;1.30;;
21114;SDS011;10715;48.546;9.896;2023-07-31T04:57:25;5.73;;;2.07;;
21114;SDS011;10715;48.546;9.896;2023-07-31T04:59:51;3.20;;;2.70;;
21114;SDS011;10715;48.546;9.896;2023-07-31T05:02:16;6.37;;;2.20;;
21114;SDS011;10715;48.546;9.896;2023-07-31T05:04:42;3.10;;;2.77;;
21114;SDS011;10715;48.546;9.896;2023-07-31T05:07:08;6.03;;;5.63;;
21114;SDS011;10715;48.546;9.896;2023-07-31T05:09:34;10.70;;;5.90;;
21114;SDS011;10715;48.546;9.896;2023-07-31T05:11:59;4.70;;;4.30;;
21114;SDS011;10715;48.546;9.896;2023-07-31T05:14:25;5.50;;;5.00;;
21114;SDS011;10715;48.546;9.896;2023-07-31T05:16:51;6.07;;;5.47;;
21114;SDS011;10715;48.546;9.896;2023-07-31T05:19:17;5.77;;;5.30;;
21114;SDS011;10715;48.546;9.896;2023-07-31T05:21:43;7.60;;;6.37;;
21114;SDS011;10715;48.546;9.896;2023-07-31T05:24:09;9.10;;;6.23;;
21114;SDS011;10715;48.546;9.896;2023-07-31T05:26:35;6.10;;;5.60;;
21114;SDS011;10715;48.546;9.896;2023-07-31T05:29:01;4.80;;;4.50;;
21114;SDS011;10715;48.546;9.896;2023-07-31T05:31:26;3.57;;;3.37;;
21114;SDS011;10715;48.546;9.896;2023-07-31T05:33:52;4.43;;;4.13;;
21114;SDS011;10715;48.546;9.896;2023-07-31T05:36:18;2.70;;;2.10;;
21114;SDS011;10715;48.546;9.896;2023-07-31T05:38:44;11.83;;;2.50;;
21114;SDS011;10715;48.546;9.896;2023-07-31T05:41:10;2.70;;;2.50;;
21114;SDS011;10715;48.546;9.896;2023-07-31T05:43:37;2.40;;;2.20;;
21114;SDS011;10715;48.546;9.896;2023-07-31T05:46:02;2.30;;;2.10;;
21114;SDS011;10715;48.546;9.896;2023-07-31T05:48:28;2.97;;;2.80;;
21114;SDS011;10715;48.546;9.896;2023-07-31T05:50:54;4.63;;;3.37;;
21114;SDS011;10715;48.546;9.896;2023-07-31T05:53:20;6.73;;;3.30;;
21114;SDS011;10715;48.546;9.896;2023-07-31T05:55:46;3.77;;;2.93;;
21114;SDS011;10715;48.546;9.896;2023-07-31T05:58:12;3.47;;;3.17;;
21114;SDS011;10715;48.546;9.896;2023-07-31T06:00:38;3.60;;;3.20;;
21114;SDS011;10715;48.546;9.896;2023-07-31T06:03:04;3.80;;;3.43;;
21114;SDS011;10715;48.546;9.896;2023-07-31T06:05:30;3.30;;;3.00;;
21114;SDS011;10715;48.546;9.896;2023-07-31T06:07:55;3.20;;;3.00;;
21114;SDS011;10715;48.546;9.896;2023-07-31T06:10:22;2.77;;;2.57;;
21114;SDS011;10715;48.546;9.896;2023-07-31T06:12:47;2.97;;;2.77;;
21114;SDS011;10715;48.546;9.896;2023-07-31T06:15:13;4.83;;;3.93;;
21114;SDS011;10715;48.546;9.896;2023-07-31T06:17:39;3.20;;;3.00;;
21114;SDS011;10715;48.546;9.896;2023-07-31T06:20:06;3.50;;;3.20;;
21114;SDS011;10715;48.546;9.896;2023-07-31T06:22:32;3.17;;;2.97;;
21114;SDS011;10715;48.546;9.896;2023-07-31T06:24:57;4.83;;;4.33;;
21114;SDS011;10715;48.546;9.896;2023-07-31T06:27:23;3.80;;;3.40;;
21114;SDS011;10715;48.546;9.896;2023-07-31T06:29:49;5.73;;;5.33;;
21114;SDS011;10715;48.546;9.896;2023-07-31T06:32:15;10.73;;;6.80;;
21114;SDS011;10715;48.546;9.896;2023-07-31T06:34:41;9.60;;;4.50;;
21114;SDS011;10715;48.546;9.896;2023-07-31T06:37:06;8.87;;;3.10;;
21114;SDS011;10715;48.546;9.896;2023-07-31T06:39:32;2.27;;;1.50;;
21114;SDS011;10715;48.546;9.896;2023-07-31T06:41:58;1.67;;;1.00;;
21114;SDS011;10715;48.546;9.896;2023-07-31T06:44:23;1.20;;;0.80;;
21114;SDS011;10715;48.546;9.896;2023-07-31T06:46:49;2.27;;;1.03;;
21114;SDS011;10715;48.546;9.896;2023-07-31T06:49:15;1.43;;;0.70;;
21114;SDS011;10715;48.546;9.896;2023-07-31T06:51:41;2.30;;;0.60;;
21114;SDS011;10715;48.546;9.896;2023-07-31T06:54:07;1.60;;;0.60;;
21114;SDS011;10715;48.546;9.896;2023-07-31T06:56:33;2.03;;;0.80;;
21114;SDS011;10715;48.546;9.896;2023-07-31T06:58:59;3.07;;;0.77;;
21114;SDS011;10715;48.546;9.896;2023-07-31T07:01:25;3.57;;;0.90;;
21114;SDS011;10715;48.546;9.896;2023-07-31T07:03:51;1.80;;;0.93;;
21114;SDS011;10715;48.546;9.896;2023-07-31T07:06:17;3.40;;;0.60;;
21114;SDS011;10715;48.546;9.896;2023-07-31T07:08:43;4.20;;;1.07;;
21114;SDS011;10715;48.546;9.896;2023-07-31T07:11:08;1.63;;;0.70;;
21114;SDS011;10715;48.546;9.896;2023-07-31T07:13:34;1.07;;;0.60;;
21114;SDS011;10715;48.546;9.896;2023-07-31T07:16:00;3.23;;;1.27;;
21114;SDS011;10715;48.546;9.896;2023-07-31T07:18:25;1.00;;;0.70;;
21114;SDS011;10715;48.546;9.896;2023-07-31T07:20:52;1.60;;;0.80;;
21114;SDS011;10715;48.546;9.896;2023-07-31T07:23:19;1.30;;;0.60;;
21114;SDS011;10715;48.546;9.896;2023-07-31T07:25:46;1.30;;;0.60;;
21114;SDS011;10715;48.546;9.896;2023-07-31T07:28:12;1.43;;;0.80;;
21114;SDS011;10715;48.546;9.896;2023-07-31T07:30:38;0.90;;;0.50;;
21114;SDS011;10715;48.546;9.896;2023-07-31T07:33:04;1.57;;;0.67;;
21114;SDS011;10715;48.546;9.896;2023-07-31T07:35:30;4.20;;;0.80;;
21114;SDS011;10715;48.546;9.896;2023-07-31T07:37:59;1.63;;;0.90;;
21114;SDS011;10715;48.546;9.896;2023-07-31T07:40:25;1.07;;;0.60;;
21114;SDS011;10715;48.546;9.896;2023-07-31T07:42:51;1.10;;;0.80;;
21114;SDS011;10715;48.546;9.896;2023-07-31T07:45:17;7.83;;;0.97;;
21114;SDS011;10715;48.546;9.896;2023-07-31T07:47:42;4.13;;;1.43;;
21114;SDS011;10715;48.546;9.896;2023-07-31T07:50:08;1.60;;;0.63;;
21114;SDS011;10715;48.546;9.896;2023-07-31T07:52:34;1.20;;;0.80;;
21114;SDS011;10715;48.546;9.896;2023-07-31T07:55:00;4.10;;;0.80;;
21114;SDS011;10715;48.546;9.896;2023-07-31T07:57:26;2.27;;;1.37;;
21114;SDS011;10715;48.546;9.896;2023-07-31T07:59:53;2.07;;;0.90;;
21114;SDS011;10715;48.546;9.896;2023-07-31T08:02:19;3.63;;;1.23;;
21114;SDS011;10715;48.546;9.896;2023-07-31T08:04:44;1.60;;;0.70;;
21114;SDS011;10715;48.546;9.896;2023-07-31T08:07:10;1.20;;;0.60;;
21114;SDS011;10715;48.546;9.896;2023-07-31T08:09:39;2.07;;;0.80;;
21114;SDS011;10715;48.546;9.896;2023-07-31T08:12:05;2.63;;;0.77;;
21114;SDS011;10715;48.546;9.896;2023-07-31T08:14:31;5.20;;;0.80;;
21114;SDS011;10715;48.546;9.896;2023-07-31T08:16:57;1.63;;;0.60;;
21114;SDS011;10715;48.546;9.896;2023-07-31T08:19:22;2.70;;;0.80;;
21114;SDS011;10715;48.546;9.896;2023-07-31T08:21:48;2.30;;;0.80;;
21114;SDS011;10715;48.546;9.896;2023-07-31T08:24:14;1.10;;;0.60;;
21114;SDS011;10715;48.546;9.896;2023-07-31T08:26:40;1.50;;;0.63;;
21114;SDS011;10715;48.546;9.896;2023-07-31T08:29:06;1.40;;;1.00;;
21114;SDS011;10715;48.546;9.896;2023-07-31T08:31:31;3.20;;;1.03;;
21114;SDS011;10715;48.546;9.896;2023-07-31T08:33:57;2.30;;;0.70;;
21114;SDS011;10715;48.546;9.896;2023-07-31T08:36:23;13.33;;;1.90;;
21114;SDS011;10715;48.546;9.896;2023-07-31T08:38:49;2.40;;;0.90;;
21114;SDS011;10715;48.546;9.896;2023-07-31T08:41:15;1.53;;;0.80;;
21114;SDS011;10715;48.546;9.896;2023-07-31T08:43:44;1.53;;;0.70;;
21114;SDS011;10715;48.546;9.896;2023-07-31T08:46:11;3.27;;;0.87;;
21114;SDS011;10715;48.546;9.896;2023-07-31T08:48:39;1.43;;;0.60;;
21114;SDS011;10715;48.546;9.896;2023-07-31T08:51:07;2.50;;;0.80;;
21114;SDS011;10715;48.546;9.896;2023-07-31T08:53:33;2.03;;;1.00;;
21114;SDS011;10715;48.546;9.896;2023-07-31T08:55:59;3.37;;;0.90;;
21114;SDS011;10715;48.546;9.896;2023-07-31T08:58:25;4.20;;;0.87;;
21114;SDS011;10715;48.546;9.896;2023-07-31T09:00:56;1.80;;;0.80;;
21114;SDS011;10715;48.546;9.896;2023-07-31T09:03:23;1.10;;;0.70;;
21114;SDS011;10715;48.546;9.896;2023-07-31T09:05:50;1.63;;;0.87;;
21114;SDS011;10715;48.546;9.896;2023-07-31T09:08:20;2.50;;;1.10;;
21114;SDS011;10715;48.546;9.896;2023-07-31T09:10:47;2.80;;;0.70;;
21114;SDS011;10715;48.546;9.896;2023-07-31T09:13:15;2.40;;;0.60;;
21114;SDS011;10715;48.546;9.896;2023-07-31T09:15:42;1.40;;;0.60;;
21114;SDS011;10715;48.546;9.896;2023-07-31T09:18:09;3.80;;;1.00;;
21114;SDS011;10715;48.546;9.896;2023-07-31T09:20:35;3.23;;;1.00;;
21114;SDS011;10715;48.546;9.896;2023-07-31T09:23:13;2.67;;;0.70;;
21114;SDS011;10715;48.546;9.896;2023-07-31T09:25:40;2.80;;;0.70;;
21114;SDS011;10715;48.546;9.896;2023-07-31T09:28:09;2.73;;;0.80;;
21114;SDS011;10715;48.546;9.896;2023-07-31T09:33:12;2.80;;;0.70;;
21114;SDS011;10715;48.546;9.896;2023-07-31T09:35:38;1.87;;;1.40;;
21114;SDS011;10715;48.546;9.896;2023-07-31T09:38:09;1.30;;;0.60;;
21114;SDS011;10715;48.546;9.896;2023-07-31T09:40:37;1.87;;;1.10;;
21114;SDS011;10715;48.546;9.896;2023-07-31T09:43:08;5.00;;;1.33;;
21114;SDS011;10715;48.546;9.896;2023-07-31T09:45:39;1.90;;;0.80;;
21114;SDS011;10715;48.546;9.896;2023-07-31T09:48:07;3.10;;;1.97;;
21114;SDS011;10715;48.546;9.896;2023-07-31T09:50:34;4.43;;;1.10;;
21114;SDS011;10715;48.546;9.896;2023-07-31T09:53:03;1.20;;;0.70;;
21114;SDS011;10715;48.546;9.896;2023-07-31T09:55:29;1.20;;;0.70;;
21114;SDS011;10715;48.546;9.896;2023-07-31T09:57:59;2.33;;;1.10;;
21114;SDS011;10715;48.546;9.896;2023-07-31T10:00:30;1.30;;;0.90;;
21114;SDS011;10715;48.546;9.896;2023-07-31T10:03:00;1.70;;;0.77;;
21114;SDS011;10715;48.546;9.896;2023-07-31T10:05:33;5.53;;;0.80;;
21114;SDS011;10715;48.546;9.896;2023-07-31T10:08:00;2.07;;;1.20;;
21114;SDS011;10715;48.546;9.896;2023-07-31T10:10:26;2.40;;;1.00;;
21114;SDS011;10715;48.546;9.896;2023-07-31T10:12:53;1.60;;;0.57;;
21114;SDS011;10715;48.546;9.896;2023-07-31T10:15:20;3.17;;;0.70;;
21114;SDS011;10715;48.546;9.896;2023-07-31T10:17:47;2.20;;;1.07;;
21114;SDS011;10715;48.546;9.896;2023-07-31T10:20:14;1.73;;;0.70;;
21114;SDS011;10715;48.546;9.896;2023-07-31T10:22:43;1.50;;;0.80;;
21114;SDS011;10715;48.546;9.896;2023-07-31T10:25:12;1.40;;;0.53;;
21114;SDS011;10715;48.546;9.896;2023-07-31T10:27:40;2.03;;;0.67;;
21114;SDS011;10715;48.546;9.896;2023-07-31T10:30:07;3.30;;;1.00;;
21114;SDS011;10715;48.546;9.896;2023-07-31T10:32:36;1.23;;;0.80;;
21114;SDS011;10715;48.546;9.896;2023-07-31T10:35:05;1.00;;;0.70;;
21114;SDS011;10715;48.546;9.896;2023-07-31T10:37:39;1.10;;;0.70;;
21114;SDS011;10715;48.546;9.896;2023-07-31T10:40:16;3.47;;;0.70;;
21114;SDS011;10715;48.546;9.896;2023-07-31T10:42:51;1.70;;;0.70;;
21114;SDS011;10715;48.546;9.896;2023-07-31T10:45:39;1.30;;;0.50;;
21114;SDS011;10715;48.546;9.896;2023-07-31T10:48:14;3.20;;;0.80;;
21114;SDS011;10715;48.546;9.896;2023-07-31T10:50:48;3.23;;;0.57;;
21114;SDS011;10715;48.546;9.896;2023-07-31T10:55:50;2.93;;;0.63;;
21114;SDS011;10715;48.546;9.896;2023-07-31T10:58:19;2.63;;;0.63;;
21114;SDS011;10715;48.546;9.896;2023-07-31T11:00:46;1.00;;;0.50;;
21114;SDS011;10715;48.546;9.896;2023-07-31T11:03:18;1.20;;;0.70;;
21114;SDS011;10715;48.546;9.896;2023-07-31T11:06:00;3.10;;;0.70;;
21114;SDS011;10715;48.546;9.896;2023-07-31T11:08:31;3.63;;;0.70;;
21114;SDS011;10715;48.546;9.896;2023-07-31T11:13:30;0.97;;;0.53;;
21114;SDS011;10715;48.546;9.896;2023-07-31T11:15:56;5.30;;;0.90;;
21114;SDS011;10715;48.546;9.896;2023-07-31T11:18:22;1.20;;;0.60;;
21114;SDS011;10715;48.546;9.896;2023-07-31T11:20:48;1.50;;;0.70;;
21114;SDS011;10715;48.546;9.896;2023-07-31T11:23:15;2.50;;;0.73;;
21114;SDS011;10715;48.546;9.896;2023-07-31T11:25:42;2.30;;;1.20;;
21114;SDS011;10715;48.546;9.896;2023-07-31T11:28:12;2.20;;;1.00;;
21114;SDS011;10715;48.546;9.896;2023-07-31T11:30:39;5.23;;;0.60;;
21114;SDS011;10715;48.546;9.896;2023-07-31T11:33:07;1.00;;;0.60;;
21114;SDS011;10715;48.546;9.896;2023-07-31T11:35:35;2.13;;;0.87;;
21114;SDS011;10715;48.546;9.896;2023-07-31T11:38:06;1.70;;;1.13;;
21114;SDS011;10715;48.546;9.896;2023-07-31T11:40:40;5.90;;;0.60;;
21114;SDS011;10715;48.546;9.896;2023-07-31T11:43:07;1.10;;;0.70;;
21114;SDS011;10715;48.546;9.896;2023-07-31T11:45:33;1.63;;;0.93;;
21114;SDS011;10715;48.546;9.896;2023-07-31T11:48:00;4.53;;;0.87;;
21114;SDS011;10715;48.546;9.896;2023-07-31T11:50:26;2.03;;;1.70;;
21114;SDS011;10715;48.546;9.896;2023-07-31T11:52:53;2.27;;;0.80;;
21114;SDS011;10715;48.546;9.896;2023-07-31T11:55:24;1.43;;;0.83;;
21114;SDS011;10715;48.546;9.896;2023-07-31T11:57:50;1.73;;;0.90;;
21114;SDS011;10715;48.546;9.896;2023-07-31T12:00:18;3.13;;;1.10;;
21114;SDS011;10715;48.546;9.896;2023-07-31T12:02:44;4.47;;;0.80;;
21114;SDS011;10715;48.546;9.896;2023-07-31T12:05:11;2.23;;;0.90;;
21114;SDS011;10715;48.546;9.896;2023-07-31T12:07:44;1.40;;;0.80;;
21114;SDS011;10715;48.546;9.896;2023-07-31T12:10:11;4.50;;;1.17;;
21114;SDS011;10715;48.546;9.896;2023-07-31T12:12:55;2.83;;;0.93;;
21114;SDS011;10715;48.546;9.896;2023-07-31T12:15:35;5.70;;;1.20;;
21114;SDS011;10715;48.546;9.896;2023-07-31T12:18:07;4.13;;;0.90;;
21114;SDS011;10715;48.546;9.896;2023-07-31T12:20:41;2.33;;;1.13;;
21114;SDS011;10715;48.546;9.896;2023-07-31T12:23:12;1.23;;;0.70;;
21114;SDS011;10715;48.546;9.896;2023-07-31T12:28:35;7.97;;;2.60;;
21114;SDS011;10715;48.546;9.896;2023-07-31T12:31:03;3.10;;;0.70;;
21114;SDS011;10715;48.546;9.896;2023-07-31T12:33:36;1.50;;;1.00;;
21114;SDS011;10715;48.546;9.896;2023-07-31T12:36:07;1.63;;;0.80;;
21114;SDS011;10715;48.546;9.896;2023-07-31T12:38:37;2.40;;;1.10;;
21114;SDS011;10715;48.546;9.896;2023-07-31T12:41:03;4.70;;;1.00;;
21114;SDS011;10715;48.546;9.896;2023-07-31T12:43:31;8.30;;;1.30;;
21114;SDS011;10715;48.546;9.896;2023-07-31T12:45:57;2.43;;;1.13;;
21114;SDS011;10715;48.546;9.896;2023-07-31T12:48:23;7.17;;;1.47;;
21114;SDS011;10715;48.546;9.896;2023-07-31T12:50:48;1.43;;;0.90;;
21114;SDS011;10715;48.546;9.896;2023-07-31T12:53:17;1.87;;;1.00;;
21114;SDS011;10715;48.546;9.896;2023-07-31T12:55:43;2.20;;;1.20;;
21114;SDS011;10715;48.546;9.896;2023-07-31T12:58:09;3.33;;;1.20;;
21114;SDS011;10715;48.546;9.896;2023-07-31T13:00:34;7.23;;;1.10;;
21114;SDS011;10715;48.546;9.896;2023-07-31T13:03:01;3.37;;;0.90;;
21114;SDS011;10715;48.546;9.896;2023-07-31T13:05:27;1.60;;;1.50;;
21114;SDS011;10715;48.546;9.896;2023-07-31T13:07:53;1.50;;;0.70;;
21114;SDS011;10715;48.546;9.896;2023-07-31T13:10:19;1.50;;;0.70;;
21114;SDS011;10715;48.546;9.896;2023-07-31T13:12:45;1.97;;;1.53;;
21114;SDS011;10715;48.546;9.896;2023-07-31T13:15:11;2.07;;;1.07;;
21114;SDS011;10715;48.546;9.896;2023-07-31T13:17:37;3.83;;;1.23;;
21114;SDS011;10715;48.546;9.896;2023-07-31T13:20:03;4.20;;;1.00;;
21114;SDS011;10715;48.546;9.896;2023-07-31T13:22:29;2.40;;;0.70;;
21114;SDS011;10715;48.546;9.896;2023-07-31T13:24:55;2.40;;;0.80;;
21114;SDS011;10715;48.546;9.896;2023-07-31T13:27:21;2.43;;;1.37;;
21114;SDS011;10715;48.546;9.896;2023-07-31T13:29:47;2.60;;;1.23;;
21114;SDS011;10715;48.546;9.896;2023-07-31T13:32:14;5.17;;;1.07;;
21114;SDS011;10715;48.546;9.896;2023-07-31T13:34:41;3.33;;;1.40;;
21114;SDS011;10715;48.546;9.896;2023-07-31T13:37:06;3.33;;;1.37;;
21114;SDS011;10715;48.546;9.896;2023-07-31T13:39:32;2.33;;;0.97;;
21114;SDS011;10715;48.546;9.896;2023-07-31T13:41:58;3.37;;;1.67;;
21114;SDS011;10715;48.546;9.896;2023-07-31T13:44:24;1.50;;;0.97;;
21114;SDS011;10715;48.546;9.896;2023-07-31T13:46:51;1.40;;;1.20;;
21114;SDS011;10715;48.546;9.896;2023-07-31T13:49:16;6.93;;;3.23;;
21114;SDS011;10715;48.546;9.896;2023-07-31T13:51:42;4.03;;;1.20;;
21114;SDS011;10715;48.546;9.896;2023-07-31T13:54:08;2.13;;;1.37;;
21114;SDS011;10715;48.546;9.896;2023-07-31T13:56:34;2.97;;;1.17;;
21114;SDS011;10715;48.546;9.896;2023-07-31T13:58:59;1.60;;;0.90;;
21114;SDS011;10715;48.546;9.896;2023-07-31T14:01:26;3.13;;;1.20;;
21114;SDS011;10715;48.546;9.896;2023-07-31T14:03:52;1.50;;;0.87;;
21114;SDS011;10715;48.546;9.896;2023-07-31T14:06:18;4.33;;;1.33;;
21114;SDS011;10715;48.546;9.896;2023-07-31T14:08:44;3.93;;;0.90;;
21114;SDS011;10715;48.546;9.896;2023-07-31T14:11:10;2.50;;;0.87;;
21114;SDS011;10715;48.546;9.896;2023-07-31T14:13:35;3.00;;;1.10;;
21114;SDS011;10715;48.546;9.896;2023-07-31T14:16:01;1.40;;;1.00;;
21114;SDS011;10715;48.546;9.896;2023-07-31T14:18:27;2.77;;;1.10;;
21114;SDS011;10715;48.546;9.896;2023-07-31T14:20:52;1.63;;;0.80;;
21114;SDS011;10715;48.546;9.896;2023-07-31T14:23:18;2.17;;;0.93;;
21114;SDS011;10715;48.546;9.896;2023-07-31T14:25:45;1.40;;;1.00;;
21114;SDS011;10715;48.546;9.896;2023-07-31T14:28:11;3.40;;;0.90;;
21114;SDS011;10715;48.546;9.896;2023-07-31T14:30:37;3.50;;;1.30;;
21114;SDS011;10715;48.546;9.896;2023-07-31T14:33:03;1.77;;;1.20;;
21114;SDS011;10715;48.546;9.896;2023-07-31T14:35:28;1.67;;;1.00;;
21114;SDS011;10715;48.546;9.896;2023-07-31T14:37:54;1.90;;;1.00;;
21114;SDS011;10715;48.546;9.896;2023-07-31T14:40:20;3.60;;;1.50;;
21114;SDS011;10715;48.546;9.896;2023-07-31T14:42:45;2.97;;;1.50;;
21114;SDS011;10715;48.546;9.896;2023-07-31T14:45:11;6.60;;;1.80;;
21114;SDS011;10715;48.546;9.896;2023-07-31T14:47:37;2.10;;;1.10;;
21114;SDS011;10715;48.546;9.896;2023-07-31T14:50:03;1.70;;;1.10;;
21114;SDS011;10715;48.546;9.896;2023-07-31T14:52:29;3.43;;;0.93;;
21114;SDS011;10715;48.546;9.896;2023-07-31T14:54:55;1.70;;;1.03;;
21114;SDS011;10715;48.546;9.896;2023-07-31T14:57:20;1.60;;;1.13;;
21114;SDS011;10715;48.546;9.896;2023-07-31T14:59:46;1.30;;;0.90;;
21114;SDS011;10715;48.546;9.896;2023-07-31T15:02:12;4.63;;;0.90;;
21114;SDS011;10715;48.546;9.896;2023-07-31T15:04:38;3.20;;;1.60;;